Impacts TAF Board
For situational awareness. Not to be used for flight planning purposes.
IDs:

KTPA - Tampa Intl Arpt, FL, US

Issued at 1120 UTC 21 May 2019
Updated at 1459 UTC 21 May 2019
Potential Impact None Slight Moderate High
Time<<22/03Z 22/04Z 22/05Z 22/06Z 22/07Z 22/08Z 22/09Z 22/10Z 22/11Z 22/12Z 22/13Z 22/14Z 22/15Z>>
Type PRVL PRVL PRVL PRVL PRVL PRVL PRVL PRVL PRVL PRVL PRVL PRVL PRVL
VIS >6 >6 >6 >6 >6 >6 >6 >6 >6 >6 >6 >6 >6
CIG -- -- -- -- -- -- -- -- -- -- -- -- --
Cover SKC SKC SKC SKC SKC SKC SKC SKC SKC SKC SKC FEW FEW
FltCat VFR VFR VFR VFR VFR VFR VFR VFR VFR VFR VFR VFR VFR
WX -- -- -- -- -- -- -- -- -- -- -- -- --
WDir VRB VRB VRB VRB VRB VRB VRB VRB VRB VRB VRB 200 200
WSpd 3 3 3 3 3 3 3 3 3 3 3 6 6
WGst -- -- -- -- -- -- -- -- -- -- -- -- --
Raw TAF
KTPA 211120Z 2112/2218 12005KT P6SM FEW100
  FM211500 18005KT P6SM FEW035
  FM211700 24007KT P6SM SCT050
  FM212100 31008KT P6SM SCT060
  FM220200 VRB03KT P6SM SKC
  FM221400 20006KT P6SM FEW040


METAR Board
Radar Display
Forecast Discussion
For situational awareness. Not to be used for flight planning purposes.